createdAt,value
2018-07-17T00:00:41.695Z,1007.76
2018-07-17T00:01:41.675Z,1007.76
2018-07-17T00:02:41.664Z,1007.74
2018-07-17T00:03:41.655Z,1007.71
2018-07-17T00:04:41.643Z,1007.75
2018-07-17T00:05:41.627Z,1007.75
2018-07-17T00:06:41.620Z,1007.75
2018-07-17T00:07:41.655Z,1007.80
2018-07-17T00:08:41.595Z,1007.76
2018-07-17T00:09:41.605Z,1007.75
2018-07-17T00:10:41.572Z,1007.75
2018-07-17T00:11:41.556Z,1007.71
2018-07-17T00:12:41.598Z,1007.69
2018-07-17T00:13:41.542Z,1007.74
2018-07-17T00:14:41.520Z,1007.71
2018-07-17T00:15:41.509Z,1007.73
2018-07-17T00:16:41.501Z,1007.76
2018-07-17T00:17:41.486Z,1007.76
2018-07-17T00:18:41.475Z,1007.78
2018-07-17T00:19:41.462Z,1007.78
2018-07-17T00:20:41.453Z,1007.75
2018-07-17T00:21:41.454Z,1007.73
2018-07-17T00:22:41.424Z,1007.70
2018-07-17T00:23:41.514Z,1007.72
2018-07-17T00:24:41.407Z,1007.72
2018-07-17T00:25:41.392Z,1007.71
2018-07-17T00:26:41.381Z,1007.72
2018-07-17T00:27:41.366Z,1007.70
2018-07-17T00:28:41.352Z,1007.71
2018-07-17T00:29:41.343Z,1007.71
2018-07-17T00:30:41.328Z,1007.73
2018-07-17T00:31:41.317Z,1007.71
2018-07-17T00:32:41.304Z,1007.72
2018-07-17T00:33:41.294Z,1007.72
2018-07-17T00:34:41.288Z,1007.68
2018-07-17T00:35:41.271Z,1007.68
2018-07-17T00:36:41.254Z,1007.67
2018-07-17T00:37:41.254Z,1007.68
2018-07-17T00:38:41.232Z,1007.67
2018-07-17T00:39:41.374Z,1007.65
2018-07-17T00:40:41.209Z,1007.67
2018-07-17T00:41:41.194Z,1007.67
2018-07-17T00:42:41.187Z,1007.68
2018-07-17T00:43:41.182Z,1007.67
2018-07-17T00:44:41.161Z,1007.59
2018-07-17T00:45:41.154Z,1007.65
2018-07-17T00:46:41.136Z,1007.61
2018-07-17T00:47:41.128Z,1007.62
2018-07-17T00:48:41.109Z,1007.62
2018-07-17T00:49:41.097Z,1007.61
2018-07-17T00:50:41.084Z,1007.58
2018-07-17T00:51:41.083Z,1007.57
2018-07-17T00:52:41.064Z,1007.57
2018-07-17T00:53:41.054Z,1007.55
2018-07-17T00:54:41.039Z,1007.56
2018-07-17T00:55:41.086Z,1007.55
2018-07-17T00:56:41.010Z,1007.55
2018-07-17T00:57:41.002Z,1007.52
2018-07-17T00:58:40.987Z,1007.51
2018-07-17T00:59:40.979Z,1007.50
2018-07-17T01:00:40.966Z,1007.52
2018-07-17T01:01:40.953Z,1007.54
2018-07-17T01:02:40.940Z,1007.54
2018-07-17T01:03:40.932Z,1007.58
2018-07-17T01:04:40.915Z,1007.51
2018-07-17T01:05:40.903Z,1007.52
2018-07-17T01:06:40.894Z,1007.48
2018-07-17T01:07:40.883Z,1007.48
2018-07-17T01:08:40.868Z,1007.47
2018-07-17T01:09:40.855Z,1007.46
2018-07-17T01:10:40.846Z,1007.47
2018-07-17T01:11:40.830Z,1007.46
2018-07-17T01:12:40.820Z,1007.42
2018-07-17T01:13:40.805Z,1007.42
2018-07-17T01:14:40.795Z,1007.46
2018-07-17T01:15:40.783Z,1007.46
2018-07-17T01:16:40.767Z,1007.45
2018-07-17T01:17:40.756Z,1007.43
2018-07-17T01:18:40.744Z,1007.45
2018-07-17T01:19:40.821Z,1007.39
2018-07-17T01:20:40.715Z,1007.38
2018-07-17T01:21:40.705Z,1007.38
2018-07-17T01:22:40.705Z,1007.38
2018-07-17T01:23:40.681Z,1007.40
2018-07-17T01:24:40.668Z,1007.38
2018-07-17T01:25:40.661Z,1007.36
2018-07-17T01:26:40.645Z,1007.43
2018-07-17T01:27:40.629Z,1007.40
2018-07-17T01:28:40.618Z,1007.41
2018-07-17T01:29:40.605Z,1007.41
2018-07-17T01:30:40.604Z,1007.37
2018-07-17T01:31:40.584Z,1007.41
2018-07-17T01:32:40.567Z,1007.37
2018-07-17T01:33:40.555Z,1007.36
2018-07-17T01:34:40.543Z,1007.33
2018-07-17T01:35:40.529Z,1007.34
2018-07-17T01:36:40.515Z,1007.31
2018-07-17T01:37:40.503Z,1007.31
2018-07-17T01:38:40.499Z,1007.30
2018-07-17T01:39:40.481Z,1007.28
2018-07-17T01:40:40.465Z,1007.27
2018-07-17T01:41:40.455Z,1007.24
2018-07-17T01:42:40.441Z,1007.23
2018-07-17T01:43:40.472Z,1007.22
2018-07-17T01:44:40.426Z,1007.20
2018-07-17T01:45:40.451Z,1007.23
2018-07-17T01:46:40.442Z,1007.20
2018-07-17T01:47:40.386Z,1007.23
2018-07-17T01:48:40.363Z,1007.23
2018-07-17T01:49:40.398Z,1007.24
2018-07-17T01:50:40.341Z,1007.22
2018-07-17T01:51:40.326Z,1007.24
2018-07-17T01:52:40.326Z,1007.21
2018-07-17T01:53:40.301Z,1007.24
2018-07-17T01:54:40.293Z,1007.23
2018-07-17T01:55:40.275Z,1007.22
2018-07-17T01:56:40.261Z,1007.22
2018-07-17T01:57:40.253Z,1007.25
2018-07-17T01:58:40.241Z,1007.23
2018-07-17T01:59:40.227Z,1007.19
2018-07-17T02:00:40.220Z,1007.23
2018-07-17T02:01:40.197Z,1007.16
2018-07-17T02:02:40.280Z,1007.20
2018-07-17T02:03:40.177Z,1007.19
2018-07-17T02:04:40.167Z,1007.18
2018-07-17T02:05:40.146Z,1007.16
2018-07-17T02:06:40.137Z,1007.17
2018-07-17T02:07:40.121Z,1007.17
2018-07-17T02:08:40.107Z,1007.18
2018-07-17T02:09:40.095Z,1007.15
2018-07-17T02:10:40.085Z,1007.13
2018-07-17T02:11:40.072Z,1007.14
2018-07-17T02:12:40.063Z,1007.13
2018-07-17T02:13:40.045Z,1007.16
2018-07-17T02:14:40.031Z,1007.19
2018-07-17T02:15:40.021Z,1007.17
2018-07-17T02:16:40.006Z,1007.16
2018-07-17T02:17:39.992Z,1007.13
2018-07-17T02:18:40.019Z,1007.13
2018-07-17T02:19:39.967Z,1007.12
2018-07-17T02:20:39.953Z,1007.15
2018-07-17T02:21:39.991Z,1007.12
2018-07-17T02:22:39.928Z,1007.16
2018-07-17T02:23:39.913Z,1007.18
2018-07-17T02:24:39.906Z,1007.13
2018-07-17T02:25:39.890Z,1007.14
2018-07-17T02:26:39.888Z,1007.10
2018-07-17T02:27:39.879Z,1007.10
2018-07-17T02:28:39.849Z,1007.16
2018-07-17T02:29:39.835Z,1007.14
2018-07-17T02:30:39.827Z,1007.13
2018-07-17T02:31:39.813Z,1007.14
2018-07-17T02:32:39.807Z,1007.16
2018-07-17T02:33:39.786Z,1007.16
2018-07-17T02:34:39.770Z,1007.21
2018-07-17T02:35:39.775Z,1007.19
2018-07-17T02:36:39.746Z,1007.21
2018-07-17T02:37:39.736Z,1007.23
2018-07-17T02:38:39.723Z,1007.25
2018-07-17T02:39:39.713Z,1007.23
2018-07-17T02:40:39.751Z,1007.24
2018-07-17T02:41:39.683Z,1007.22
2018-07-17T02:42:39.770Z,1007.26
2018-07-17T02:43:39.655Z,1007.25
2018-07-17T02:44:39.644Z,1007.25
2018-07-17T02:45:39.686Z,1007.24
2018-07-17T02:46:39.624Z,1007.24
2018-07-17T02:47:39.603Z,1007.22
2018-07-17T02:48:39.589Z,1007.21
2018-07-17T02:49:39.576Z,1007.17
2018-07-17T02:50:39.566Z,1007.20
2018-07-17T02:51:39.548Z,1007.17
2018-07-17T02:52:39.545Z,1007.22
2018-07-17T02:53:39.528Z,1007.20
2018-07-17T02:54:39.512Z,1007.23
2018-07-17T02:55:39.506Z,1007.24
2018-07-17T02:56:39.483Z,1007.26
2018-07-17T02:57:39.473Z,1007.25
2018-07-17T02:58:39.457Z,1007.26
2018-07-17T02:59:39.464Z,1007.25
2018-07-17T03:00:39.435Z,1007.24
2018-07-17T03:01:39.423Z,1007.24
2018-07-17T03:02:39.406Z,1007.26
2018-07-17T03:03:39.392Z,1007.24
2018-07-17T03:04:39.431Z,1007.27
2018-07-17T03:05:39.366Z,1007.28
2018-07-17T03:06:39.353Z,1007.24
2018-07-17T03:07:39.341Z,1007.28
2018-07-17T03:08:39.325Z,1007.28
2018-07-17T03:09:39.311Z,1007.28
2018-07-17T03:10:39.306Z,1007.27
2018-07-17T03:11:39.287Z,1007.30
2018-07-17T03:12:39.289Z,1007.28
2018-07-17T03:13:39.264Z,1007.28
2018-07-17T03:14:39.263Z,1007.30
2018-07-17T03:15:39.236Z,1007.30
2018-07-17T03:16:39.219Z,1007.32
2018-07-17T03:17:39.310Z,1007.30
2018-07-17T03:18:39.199Z,1007.26
2018-07-17T03:19:39.184Z,1007.26
2018-07-17T03:20:39.217Z,1007.27
2018-07-17T03:21:39.153Z,1007.27
2018-07-17T03:22:39.149Z,1007.27
2018-07-17T03:23:39.130Z,1007.25
2018-07-17T03:24:39.199Z,1007.25
2018-07-17T03:25:39.201Z,1007.27
2018-07-17T03:26:39.092Z,1007.31
2018-07-17T03:27:39.078Z,1007.30
2018-07-17T03:28:39.109Z,1007.29
2018-07-17T03:29:39.050Z,1007.28
2018-07-17T03:30:39.034Z,1007.29
2018-07-17T03:31:39.022Z,1007.26
2018-07-17T03:32:39.009Z,1007.26
2018-07-17T03:33:38.994Z,1007.32
2018-07-17T03:34:38.979Z,1007.28
2018-07-17T03:35:38.971Z,1007.29
2018-07-17T03:36:38.956Z,1007.30
2018-07-17T03:37:38.939Z,1007.29
2018-07-17T03:38:38.936Z,1007.28
2018-07-17T03:39:38.914Z,1007.28
2018-07-17T03:40:38.900Z,1007.28
2018-07-17T03:41:38.940Z,1007.34
2018-07-17T03:42:38.876Z,1007.33
2018-07-17T03:43:38.861Z,1007.34
2018-07-17T03:44:38.851Z,1007.33
2018-07-17T03:45:38.834Z,1007.32
2018-07-17T03:46:38.820Z,1007.35
2018-07-17T03:47:38.809Z,1007.34
2018-07-17T03:48:38.795Z,1007.38
2018-07-17T03:49:38.781Z,1007.38
2018-07-17T03:50:38.772Z,1007.36
2018-07-17T03:51:38.756Z,1007.36
2018-07-17T03:52:38.741Z,1007.40
2018-07-17T03:53:38.728Z,1007.37
2018-07-17T03:54:38.718Z,1007.39
2018-07-17T03:55:38.730Z,1007.40
2018-07-17T03:56:38.685Z,1007.38
2018-07-17T03:57:38.675Z,1007.38
2018-07-17T03:58:38.663Z,1007.40
2018-07-17T03:59:38.645Z,1007.41
2018-07-17T04:00:38.685Z,1007.43
2018-07-17T04:01:38.623Z,1007.40
2018-07-17T04:02:38.610Z,1007.40
2018-07-17T04:03:38.593Z,1007.37
2018-07-17T04:04:38.583Z,1007.38
2018-07-17T04:05:38.567Z,1007.38
2018-07-17T04:06:38.551Z,1007.35
2018-07-17T04:07:38.543Z,1007.35
2018-07-17T04:08:38.585Z,1007.36
2018-07-17T04:09:38.516Z,1007.36
2018-07-17T04:10:38.498Z,1007.39
2018-07-17T04:11:38.489Z,1007.38
2018-07-17T04:12:38.474Z,1007.37
2018-07-17T04:13:38.457Z,1007.36
2018-07-17T04:14:38.446Z,1007.38
2018-07-17T04:15:38.432Z,1007.33
2018-07-17T04:16:38.419Z,1007.32
2018-07-17T04:17:38.402Z,1007.33
2018-07-17T04:18:38.395Z,1007.32
2018-07-17T04:19:38.392Z,1007.37
2018-07-17T04:20:38.365Z,1007.37
2018-07-17T04:21:38.348Z,1007.38
2018-07-17T04:22:38.335Z,1007.39
2018-07-17T04:23:38.325Z,1007.39
2018-07-17T04:24:38.466Z,1007.40
2018-07-17T04:25:38.301Z,1007.41
2018-07-17T04:26:38.283Z,1007.41
2018-07-17T04:27:38.272Z,1007.41
2018-07-17T04:28:38.255Z,1007.40
2018-07-17T04:29:38.245Z,1007.39
2018-07-17T04:30:38.228Z,1007.40
2018-07-17T04:31:38.287Z,1007.41
2018-07-17T04:32:38.204Z,1007.40
2018-07-17T04:33:38.199Z,1007.41
2018-07-17T04:34:38.183Z,1007.44
2018-07-17T04:35:38.166Z,1007.44
2018-07-17T04:36:38.148Z,1007.44
2018-07-17T04:37:38.133Z,1007.45
2018-07-17T04:38:38.123Z,1007.47
2018-07-17T04:39:38.106Z,1007.45
2018-07-17T04:40:38.233Z,1007.47
2018-07-17T04:41:38.093Z,1007.44
2018-07-17T04:42:38.065Z,1007.45
2018-07-17T04:43:38.081Z,1007.44
2018-07-17T04:44:38.035Z,1007.44
2018-07-17T04:45:38.023Z,1007.42
2018-07-17T04:46:38.014Z,1007.44
2018-07-17T04:47:37.998Z,1007.45
2018-07-17T04:48:37.981Z,1007.46
2018-07-17T04:49:37.973Z,1007.48
2018-07-17T04:50:37.956Z,1007.51
2018-07-17T04:51:37.941Z,1007.50
2018-07-17T04:52:37.928Z,1007.52
2018-07-17T04:53:37.926Z,1007.52
2018-07-17T04:54:37.902Z,1007.52
2018-07-17T04:55:37.888Z,1007.53
2018-07-17T04:56:37.881Z,1007.56
2018-07-17T04:57:37.861Z,1007.56
2018-07-17T04:58:37.849Z,1007.54
2018-07-17T04:59:37.837Z,1007.59
2018-07-17T05:00:37.822Z,1007.60
2018-07-17T05:01:37.915Z,1007.61
2018-07-17T05:02:37.794Z,1007.61
2018-07-17T05:03:37.781Z,1007.62
2018-07-17T05:04:37.780Z,1007.63
2018-07-17T05:05:37.753Z,1007.61
2018-07-17T05:06:37.744Z,1007.64
2018-07-17T05:07:37.820Z,1007.65
2018-07-17T05:08:37.713Z,1007.62
2018-07-17T05:09:37.699Z,1007.59
2018-07-17T05:10:37.687Z,1007.60
2018-07-17T05:11:37.677Z,1007.57
2018-07-17T05:12:37.657Z,1007.55
2018-07-17T05:13:37.645Z,1007.55
2018-07-17T05:14:37.633Z,1007.52
2018-07-17T05:15:37.618Z,1007.54
2018-07-17T05:16:37.601Z,1007.54
2018-07-17T05:17:37.590Z,1007.52
2018-07-17T05:18:37.580Z,1007.53
2018-07-17T05:19:37.565Z,1007.55
2018-07-17T05:20:37.554Z,1007.52
2018-07-17T05:21:37.538Z,1007.57
2018-07-17T05:22:37.522Z,1007.56
2018-07-17T05:23:37.514Z,1007.60
2018-07-17T05:24:37.499Z,1007.58
2018-07-17T05:25:37.486Z,1007.58
2018-07-17T05:26:37.526Z,1007.57
2018-07-17T05:27:37.468Z,1007.57
2018-07-17T05:28:37.447Z,1007.53
2018-07-17T05:29:37.437Z,1007.56
2018-07-17T05:30:37.420Z,1007.55
2018-07-17T05:31:37.404Z,1007.58
2018-07-17T05:32:37.395Z,1007.58
2018-07-17T05:33:37.378Z,1007.61
2018-07-17T05:34:37.418Z,1007.61
2018-07-17T05:35:37.466Z,1007.64
2018-07-17T05:36:37.337Z,1007.64
2018-07-17T05:37:37.324Z,1007.68
2018-07-17T05:38:37.323Z,1007.70
2018-07-17T05:39:37.300Z,1007.69
2018-07-17T05:40:37.284Z,1007.71
2018-07-17T05:41:37.275Z,1007.70
2018-07-17T05:42:37.367Z,1007.70
2018-07-17T05:43:37.255Z,1007.72
2018-07-17T05:44:37.234Z,1007.69
2018-07-17T05:45:37.222Z,1007.71
2018-07-17T05:46:37.315Z,1007.70
2018-07-17T05:47:37.195Z,1007.69
2018-07-17T05:48:37.187Z,1007.67
2018-07-17T05:49:37.167Z,1007.68
2018-07-17T05:50:37.162Z,1007.67
2018-07-17T05:51:37.144Z,1007.68
2018-07-17T05:52:37.127Z,1007.72
2018-07-17T05:53:37.112Z,1007.68
2018-07-17T05:54:37.101Z,1007.66
2018-07-17T05:55:37.093Z,1007.68
2018-07-17T05:56:37.074Z,1007.67
2018-07-17T05:57:37.061Z,1007.70
2018-07-17T05:58:37.050Z,1007.70
2018-07-17T05:59:37.039Z,1007.68
2018-07-17T06:00:37.022Z,1007.68
2018-07-17T06:01:37.013Z,1007.78
2018-07-17T06:02:37.000Z,1007.76
2018-07-17T06:03:36.985Z,1007.73
2018-07-17T06:04:36.970Z,1007.78
2018-07-17T06:05:36.965Z,1007.79
2018-07-17T06:06:37.026Z,1007.84
2018-07-17T06:07:36.933Z,1007.89
2018-07-17T06:08:36.920Z,1007.92
2018-07-17T06:09:36.911Z,1007.95
2018-07-17T06:10:36.897Z,1007.98
2018-07-17T06:11:36.883Z,1007.99
2018-07-17T06:12:36.866Z,1007.99
2018-07-17T06:13:36.854Z,1008.01
2018-07-17T06:14:36.844Z,1008.04
2018-07-17T06:15:36.835Z,1008.00
2018-07-17T06:16:36.817Z,1008.03
2018-07-17T06:17:36.803Z,1007.99
2018-07-17T06:18:36.795Z,1008.01
2018-07-17T06:19:36.781Z,1008.04
2018-07-17T06:20:36.765Z,1008.09
2018-07-17T06:21:36.758Z,1008.08
2018-07-17T06:22:36.873Z,1008.09
2018-07-17T06:23:36.736Z,1008.15
2018-07-17T06:24:36.715Z,1008.17
2018-07-17T06:25:36.754Z,1008.20
2018-07-17T06:26:36.688Z,1008.18
2018-07-17T06:27:36.674Z,1008.20
2018-07-17T06:28:36.660Z,1008.18
2018-07-17T06:29:36.657Z,1008.16
2018-07-17T06:30:36.637Z,1008.19
2018-07-17T06:31:36.631Z,1008.20
2018-07-17T06:32:36.614Z,1008.20
2018-07-17T06:33:36.598Z,1008.17
2018-07-17T06:34:36.585Z,1008.18
2018-07-17T06:35:36.572Z,1008.15
2018-07-17T06:36:36.561Z,1008.14
2018-07-17T06:37:36.544Z,1008.17
2018-07-17T06:38:36.533Z,1008.16
2018-07-17T06:39:36.522Z,1008.12
2018-07-17T06:40:36.511Z,1008.12
2018-07-17T06:41:36.496Z,1008.10
2018-07-17T06:42:36.484Z,1008.11
2018-07-17T06:43:36.471Z,1008.10
2018-07-17T06:44:36.460Z,1008.13
2018-07-17T06:45:36.448Z,1008.09
2018-07-17T06:46:36.558Z,1008.11
2018-07-17T06:47:36.423Z,1008.11
2018-07-17T06:48:36.407Z,1008.13
2018-07-17T06:49:36.455Z,1008.13
2018-07-17T06:50:36.524Z,1008.11
2018-07-17T06:51:36.371Z,1008.13
2018-07-17T06:52:36.361Z,1008.14
2018-07-17T06:53:36.351Z,1008.15
2018-07-17T06:54:36.337Z,1008.13
2018-07-17T06:55:36.321Z,1008.14
2018-07-17T06:56:36.308Z,1008.13
2018-07-17T06:57:36.298Z,1008.14
2018-07-17T06:58:36.288Z,1008.15
2018-07-17T06:59:36.271Z,1008.13
2018-07-17T07:00:36.261Z,1008.15
2018-07-17T07:01:36.255Z,1008.13
2018-07-17T07:02:36.236Z,1008.14
2018-07-17T07:03:36.222Z,1008.16
2018-07-17T07:04:36.210Z,1008.08
2018-07-17T07:05:36.211Z,1008.07
2018-07-17T07:06:36.197Z,1008.06
2018-07-17T07:07:36.177Z,1008.07
2018-07-17T07:08:36.218Z,1008.07
2018-07-17T07:09:36.153Z,1008.05
2018-07-17T07:10:36.139Z,1008.05
2018-07-17T07:11:36.125Z,1008.08
2018-07-17T07:12:36.115Z,1008.08
2018-07-17T07:13:36.105Z,1008.08
2018-07-17T07:14:36.093Z,1008.10
2018-07-17T07:15:36.080Z,1008.12
2018-07-17T07:16:36.066Z,1008.10
2018-07-17T07:17:36.058Z,1008.14
2018-07-17T07:18:36.054Z,1008.13
2018-07-17T07:19:36.032Z,1008.12
2018-07-17T07:20:36.023Z,1008.15
2018-07-17T07:21:36.107Z,1008.18
2018-07-17T07:22:35.998Z,1008.22
2018-07-17T07:23:35.983Z,1008.24
2018-07-17T07:24:35.977Z,1008.24
2018-07-17T07:25:35.958Z,1008.23
2018-07-17T07:26:35.961Z,1008.20
2018-07-17T07:27:35.936Z,1008.20
2018-07-17T07:28:35.926Z,1008.23
2018-07-17T07:29:35.914Z,1008.24
2018-07-17T07:30:35.904Z,1008.25
2018-07-17T07:31:35.895Z,1008.26
2018-07-17T07:32:35.882Z,1008.29
2018-07-17T07:33:35.864Z,1008.25
2018-07-17T07:34:35.856Z,1008.25
2018-07-17T07:35:35.840Z,1008.28
2018-07-17T07:36:35.833Z,1008.30
2018-07-17T07:37:35.818Z,1008.33
2018-07-17T07:38:35.814Z,1008.32
2018-07-17T07:39:35.795Z,1008.34
2018-07-17T07:40:35.789Z,1008.36
2018-07-17T07:41:35.770Z,1008.38
2018-07-17T07:42:35.761Z,1008.44
2018-07-17T07:43:35.745Z,1008.42
2018-07-17T07:44:35.738Z,1008.43
2018-07-17T07:45:35.834Z,1008.44
2018-07-17T07:46:35.711Z,1008.46
2018-07-17T07:47:35.698Z,1008.44
2018-07-17T07:48:35.706Z,1008.45
2018-07-17T07:49:35.675Z,1008.47
2018-07-17T07:50:35.665Z,1008.45
2018-07-17T07:51:35.654Z,1008.44
2018-07-17T07:52:35.641Z,1008.43
2018-07-17T07:53:35.641Z,1008.44
2018-07-17T07:54:35.616Z,1008.44
2018-07-17T07:55:35.666Z,1008.47
2018-07-17T07:56:35.594Z,1008.45
2018-07-17T07:57:35.585Z,1008.46
2018-07-17T07:58:35.570Z,1008.47
2018-07-17T07:59:35.563Z,1008.43
2018-07-17T08:00:35.558Z,1008.42
2018-07-17T08:01:35.651Z,1008.41
2018-07-17T08:02:35.532Z,1008.43
2018-07-17T08:03:35.571Z,1008.41
2018-07-17T08:04:35.510Z,1008.38
2018-07-17T08:05:35.519Z,1008.43
2018-07-17T08:06:35.489Z,1008.43
2018-07-17T08:07:35.475Z,1008.39
2018-07-17T08:08:35.460Z,1008.42
2018-07-17T08:09:35.453Z,1008.43
2018-07-17T08:10:35.437Z,1008.44
2018-07-17T08:11:35.450Z,1008.45
2018-07-17T08:12:35.423Z,1008.46
2018-07-17T08:13:35.405Z,1008.50
2018-07-17T08:14:35.397Z,1008.49
2018-07-17T08:15:35.383Z,1008.50
2018-07-17T08:16:35.376Z,1008.52
2018-07-17T08:17:35.410Z,1008.51
2018-07-17T08:18:35.353Z,1008.52
2018-07-17T08:19:35.344Z,1008.49
2018-07-17T08:20:35.336Z,1008.50
2018-07-17T08:21:35.385Z,1008.53
2018-07-17T08:22:35.305Z,1008.48
2018-07-17T08:23:35.298Z,1008.52
2018-07-17T08:24:35.287Z,1008.51
2018-07-17T08:25:35.280Z,1008.50
2018-07-17T08:26:35.265Z,1008.54
2018-07-17T08:27:35.256Z,1008.50
2018-07-17T08:28:35.248Z,1008.55
2018-07-17T08:29:35.237Z,1008.50
2018-07-17T08:30:35.226Z,1008.52
2018-07-17T08:31:35.215Z,1008.52
2018-07-17T08:32:35.205Z,1008.53
2018-07-17T08:33:35.193Z,1008.52
2018-07-17T08:34:35.185Z,1008.51
2018-07-17T08:35:35.175Z,1008.54
2018-07-17T08:36:35.163Z,1008.51
2018-07-17T08:37:35.152Z,1008.53
2018-07-17T08:38:35.214Z,1008.53
2018-07-17T08:39:35.129Z,1008.52
2018-07-17T08:40:35.120Z,1008.53
2018-07-17T08:41:35.162Z,1008.53
2018-07-17T08:42:35.100Z,1008.49
2018-07-17T08:43:35.158Z,1008.52
2018-07-17T08:44:35.081Z,1008.52
2018-07-17T08:45:35.072Z,1008.52
2018-07-17T08:46:35.059Z,1008.51
2018-07-17T08:47:35.052Z,1008.54
2018-07-17T08:48:35.044Z,1008.56
2018-07-17T08:49:35.035Z,1008.56
2018-07-17T08:50:35.036Z,1008.59
2018-07-17T08:51:35.020Z,1008.61
2018-07-17T08:52:35.009Z,1008.58
2018-07-17T08:53:34.991Z,1008.55
2018-07-17T08:54:34.995Z,1008.59
2018-07-17T08:55:34.972Z,1008.56
2018-07-17T08:56:34.966Z,1008.58
2018-07-17T08:57:34.947Z,1008.62
2018-07-17T08:58:34.939Z,1008.64
2018-07-17T08:59:34.926Z,1008.57
2018-07-17T09:00:35.051Z,1008.60
2018-07-17T09:01:34.908Z,1008.54
2018-07-17T09:02:34.901Z,1008.60
2018-07-17T09:03:34.888Z,1008.59
2018-07-17T09:04:34.882Z,1008.56
2018-07-17T09:05:34.869Z,1008.59
2018-07-17T09:06:34.860Z,1008.61
2018-07-17T09:07:34.847Z,1008.60
2018-07-17T09:08:34.847Z,1008.62
2018-07-17T09:09:34.828Z,1008.59
2018-07-17T09:10:34.853Z,1008.56
2018-07-17T09:11:34.810Z,1008.53
2018-07-17T09:12:34.816Z,1008.51
2018-07-17T09:13:34.846Z,1008.57
2018-07-17T09:14:34.786Z,1008.57
2018-07-17T09:15:34.772Z,1008.57
2018-07-17T09:16:34.759Z,1008.57
2018-07-17T09:17:34.751Z,1008.58
2018-07-17T09:18:34.839Z,1008.63
2018-07-17T09:19:34.738Z,1008.65
2018-07-17T09:20:34.718Z,1008.64
2018-07-17T09:21:34.785Z,1008.64
2018-07-17T09:22:34.704Z,1008.67
2018-07-17T09:23:34.699Z,1008.64
2018-07-17T09:24:34.682Z,1008.63
2018-07-17T09:25:34.680Z,1008.63
2018-07-17T09:26:34.665Z,1008.61
2018-07-17T09:27:34.666Z,1008.62
2018-07-17T09:28:34.646Z,1008.64
2018-07-17T09:29:34.635Z,1008.69
2018-07-17T09:30:34.629Z,1008.60
2018-07-17T09:31:34.635Z,1008.65
2018-07-17T09:32:34.615Z,1008.63
2018-07-17T09:33:34.612Z,1008.63
2018-07-17T09:34:34.648Z,1008.62
2018-07-17T09:35:34.586Z,1008.65
2018-07-17T09:36:34.579Z,1008.67
2018-07-17T09:37:34.559Z,1008.65
2018-07-17T09:38:34.551Z,1008.64
2018-07-17T09:39:34.543Z,1008.67
2018-07-17T09:40:34.542Z,1008.66
2018-07-17T09:41:34.524Z,1008.65
2018-07-17T09:42:34.515Z,1008.64
2018-07-17T09:43:34.505Z,1008.66
2018-07-17T09:44:34.495Z,1008.63
2018-07-17T09:45:34.488Z,1008.65
2018-07-17T09:46:34.477Z,1008.64
2018-07-17T09:47:34.476Z,1008.62
2018-07-17T09:48:34.456Z,1008.65
2018-07-17T09:49:34.455Z,1008.63
2018-07-17T09:50:34.492Z,1008.62
2018-07-17T09:51:34.428Z,1008.64
2018-07-17T09:52:34.423Z,1008.67
2018-07-17T09:53:34.424Z,1008.61
2018-07-17T09:54:34.412Z,1008.64
2018-07-17T09:55:34.395Z,1008.65
2018-07-17T09:56:34.385Z,1008.62
2018-07-17T09:57:34.379Z,1008.62
2018-07-17T09:58:34.366Z,1008.63
2018-07-17T09:59:34.353Z,1008.65
2018-07-17T10:00:34.349Z,1008.65
2018-07-17T10:01:34.344Z,1008.65
2018-07-17T10:02:34.327Z,1008.68
2018-07-17T10:03:34.320Z,1008.72
2018-07-17T10:04:34.318Z,1008.71
2018-07-17T10:05:34.304Z,1008.72
2018-07-17T10:06:34.292Z,1008.67
2018-07-17T10:07:34.283Z,1008.59
2018-07-17T10:08:34.274Z,1008.57
2018-07-17T10:09:34.304Z,1008.66
2018-07-17T10:10:34.255Z,1008.62
2018-07-17T10:11:34.299Z,1008.66
2018-07-17T10:12:34.238Z,1008.64
2018-07-17T10:13:34.235Z,1008.66
2018-07-17T10:14:34.258Z,1008.69
2018-07-17T10:15:34.212Z,1008.64
2018-07-17T10:16:34.206Z,1008.67
2018-07-17T10:17:34.195Z,1008.64
2018-07-17T10:18:34.181Z,1008.67
2018-07-17T10:19:34.175Z,1008.66
2018-07-17T10:20:34.165Z,1008.64
2018-07-17T10:21:34.162Z,1008.67
2018-07-17T10:22:34.151Z,1008.67
2018-07-17T10:23:34.144Z,1008.71
2018-07-17T10:24:34.207Z,1008.67
2018-07-17T10:25:34.175Z,1008.69
2018-07-17T10:26:34.168Z,1008.53
2018-07-17T10:27:34.158Z,1008.56
2018-07-17T10:28:34.109Z,1008.63
2018-07-17T10:29:34.086Z,1008.72
2018-07-17T10:30:34.083Z,1008.69
2018-07-17T10:31:34.069Z,1008.70
2018-07-17T10:32:34.066Z,1008.75
2018-07-17T10:33:34.052Z,1008.73
2018-07-17T10:34:34.050Z,1008.67
2018-07-17T10:35:34.039Z,1008.72
2018-07-17T10:36:34.025Z,1008.70
2018-07-17T10:37:34.015Z,1008.77
2018-07-17T10:38:34.086Z,1008.73
2018-07-17T10:39:34.001Z,1008.72
2018-07-17T10:40:34.003Z,1008.75
2018-07-17T10:41:33.983Z,1008.77
2018-07-17T10:42:33.971Z,1008.78
2018-07-17T10:43:34.024Z,1008.81
2018-07-17T10:44:33.954Z,1008.81
2018-07-17T10:45:33.945Z,1008.82
2018-07-17T10:46:33.936Z,1008.82
2018-07-17T10:47:33.959Z,1008.78
2018-07-17T10:48:33.916Z,1008.83
2018-07-17T10:49:33.910Z,1008.77
2018-07-17T10:50:33.908Z,1008.78
2018-07-17T10:51:33.902Z,1008.75
2018-07-17T10:52:33.900Z,1008.74
2018-07-17T10:53:33.876Z,1008.73
2018-07-17T10:54:33.875Z,1008.75
2018-07-17T10:55:33.859Z,1008.78
2018-07-17T10:56:33.955Z,1008.75
2018-07-17T10:57:33.843Z,1008.73
2018-07-17T10:58:33.831Z,1008.73
2018-07-17T10:59:33.827Z,1008.77
2018-07-17T11:00:33.816Z,1008.78
2018-07-17T11:01:33.807Z,1008.75
2018-07-17T11:02:33.796Z,1008.75
2018-07-17T11:03:33.793Z,1008.75
2018-07-17T11:04:33.780Z,1008.72
2018-07-17T11:05:33.787Z,1008.82
2018-07-17T11:06:33.771Z,1008.74
2018-07-17T11:07:33.767Z,1008.72
2018-07-17T11:08:33.806Z,1008.72
2018-07-17T11:09:33.736Z,1008.77
2018-07-17T11:10:33.735Z,1008.76
2018-07-17T11:11:33.720Z,1008.74
2018-07-17T11:12:33.713Z,1008.78
2018-07-17T11:13:33.707Z,1008.81
2018-07-17T11:14:33.697Z,1008.76
2018-07-17T11:15:33.693Z,1008.76
2018-07-17T11:16:33.679Z,1008.75
2018-07-17T11:17:33.671Z,1008.70
2018-07-17T11:18:33.665Z,1008.72
2018-07-17T11:19:33.653Z,1008.70
2018-07-17T11:20:33.685Z,1008.68
2018-07-17T11:21:33.636Z,1008.66
2018-07-17T11:22:33.635Z,1008.65
2018-07-17T11:23:33.620Z,1008.65
2018-07-17T11:24:33.616Z,1008.71
2018-07-17T11:25:33.606Z,1008.66
2018-07-17T11:26:33.598Z,1008.70
2018-07-17T11:27:33.592Z,1008.64
2018-07-17T11:28:33.576Z,1008.67
2018-07-17T11:29:33.567Z,1008.68
2018-07-17T11:30:33.568Z,1008.70
2018-07-17T11:31:33.558Z,1008.69
2018-07-17T11:32:33.541Z,1008.67
2018-07-17T11:33:33.618Z,1008.55
2018-07-17T11:34:33.549Z,1008.62
2018-07-17T11:35:33.519Z,1008.42
2018-07-17T11:36:33.506Z,1008.45
2018-07-17T11:37:33.505Z,1008.54
2018-07-17T11:38:33.551Z,1008.58
2018-07-17T11:39:33.493Z,1008.65
2018-07-17T11:40:33.482Z,1008.64
2018-07-17T11:41:33.471Z,1008.64
2018-07-17T11:42:33.462Z,1008.63
2018-07-17T11:43:33.449Z,1008.59
2018-07-17T11:44:33.454Z,1008.60
2018-07-17T11:45:33.433Z,1008.40
2018-07-17T11:46:33.443Z,1008.40
2018-07-17T11:47:33.416Z,1008.61
2018-07-17T11:48:33.417Z,1008.42
2018-07-17T11:49:33.400Z,1008.43
2018-07-17T11:50:33.391Z,1008.59
2018-07-17T11:51:33.381Z,1008.65
2018-07-17T11:52:33.376Z,1008.57
2018-07-17T11:53:33.369Z,1008.54
2018-07-17T11:54:33.496Z,1008.52
2018-07-17T11:55:33.345Z,1008.50
2018-07-17T11:56:33.354Z,1008.52
2018-07-17T11:57:33.347Z,1008.47
2018-07-17T11:58:33.320Z,1008.54
2018-07-17T11:59:33.393Z,1008.55
2018-07-17T12:00:33.306Z,1008.62
2018-07-17T12:01:33.295Z,1008.55
2018-07-17T12:02:33.287Z,1008.43
2018-07-17T12:03:33.279Z,1008.39
2018-07-17T12:04:33.275Z,1008.43
2018-07-17T12:05:33.306Z,1008.38